Gonzalo Valverde

Chefscout - Danubio
19 Aug 2027
Donnerstag
Verarbeitung

Persönlichkeit

Anpassungsfähigkeit (12) Ehrgeiz (18) Kontroverse (7) Loyalität (18) Druck (3) Professionalität (1) Fairness (15) Temperament (6)

Profil

Trainerstil Demokratisch
Lizenz Kontinentale A
Entschlossenheit 8
Menschenführung 10
Motivation 12
Disziplin 5
Arbeitszufriedenheit
87%
Ermüdung
0%
Rolle Chefscout
Gehalt 38.2K p/W
Vertrag 14.03.2030

Leistung

Verhalten Gut
Trainingseffektivität
39%
Spielerentwicklung
35%
Verletzungsprävention
50%
Taktische Umsetzung
45%

Letzte Ereignisse

Nahm an einer Scouting-Besprechung teil jetzt
Nahm an einer Scouting-Besprechung teil jetzt
Empfahl ein Transferziel jetzt
Empfahl ein Transferziel jetzt
Empfahl ein Transferziel jetzt
Empfahl ein Transferziel 7T her
Empfahl ein Transferziel 7T her
Empfahl ein Transferziel 7T her

Aktuell beobachtet

184
Spieler Verein Status Fähigkeit Vertrauen Beobachtet Zuletzt beobachtet Letzte Stimme
Benjamín Núñez Nacional Aktiv 90 / 106 58% 1 28.06.2027 -
Dion Beljo Standard Liege Aktiv 131 / 132 66% 1 01.06.2027 Befürworten
Jefry Zapata Danubio Verhandlung 118 / 118 67% 1 01.06.2027 Befürworten
Esteban Obregón Liverpool Montevideo Verhandlung 114 / 116 71% 1 01.06.2027 Befürworten
Khama Dolly Utrecht Aktiv 123 / 124 67% 1 01.06.2027 Befürworten
Bradley Phiri LNZ Aktiv 112 / 112 66% 1 01.06.2027 Befürworten
Job Ochieng Real Sociedad Aktiv 96 / 96 40% 5 30.05.2027 -
Mees Rijks Bristol Rovers Aktiv 106 / 125 40% 3 29.05.2027 -
Jaze Kabia Grimsby Town Aktiv 106 / 79 40% 1 29.05.2027 -
Lorent Tolaj Plymouth Argyle Aktiv 132 / 128 40% 3 28.05.2027 -
Adam Idah Swansea City Aktiv 121 / 133 40% 1 28.05.2027 -
Ekain Orobengoa Real Sociedad Aktiv 111 / 102 40% 2 27.05.2027 -
Marezi Portsmouth Aktiv 114 / 108 40% 7 26.05.2027 -
Luis Vázquez Birmingham Aktiv 132 / 123 40% 2 26.05.2027 -
Joe Gelhardt Hull City Aktiv 131 / 117 40% 2 24.05.2027 -
Christian Saydee Wigan Athletic Aktiv 105 / 98 40% 3 23.05.2027 -
Ibrahim Maza Bayer Leverkusen Aktiv 154 / 167 40% 2 23.05.2027 -
Harry Leonard Peterborough United Aktiv 124 / 94 40% 1 23.05.2027 -
Franz-Ethan Meichtry Genoa Aktiv 113 / 116 40% 1 23.05.2027 -
Will Lankshear Middlesbrough Aktiv 130 / 144 40% 3 21.05.2027 -
Ethan Williams Peterborough United Aktiv 130 / 136 40% 3 21.05.2027 -
Iwan Morgan Grimsby Town Aktiv 124 / 102 40% 2 19.05.2027 -
Leo Castledine Middlesbrough Aktiv 141 / 116 40% 2 19.05.2027 -
Yousef Salech Cardiff City Aktiv 124 / 134 40% 1 19.05.2027 -
Alphadjo Cissé Como Aktiv 123 / 132 40% 1 19.05.2027 -
Richard Koné Queens Park Rangers Aktiv 133 / 138 40% 3 16.05.2027 -
Kelly Saravanan Salford City Aktiv 94 / 122 40% 1 16.05.2027 -
Morgan Whittaker Middlesbrough Aktiv 140 / 149 40% 6 14.05.2027 -
Mandla Mahlangu Ajax Cape Town Aktiv 98 / 123 40% 1 13.05.2027 -
Robert Mizo Ashanti Gold Aktiv 115 / 94 40% 3 12.05.2027 -
Lee Bonis Chesterfield Aktiv 109 / 97 40% 1 12.05.2027 -
Tommy Conway Middlesbrough Aktiv 116 / 128 40% 3 11.05.2027 -
Cameron Archer Southampton Aktiv 131 / 134 40% 1 11.05.2027 -
Shea Lacey Wolverhampton Aktiv 120 / 143 40% 2 10.05.2027 -
Josh King Chelsea Aktiv 147 / 149 40% 1 10.05.2027 -
Zeki Amdouni Burnley Aktiv 147 / 130 40% 1 07.05.2027 -
Ilyas Ansah Hull City Aktiv 148 / 143 40% 6 03.05.2027 -
Caleb Yirenkyi Coventry City Aktiv 148 / 138 40% 1 03.05.2027 -
Gilberto Mora Atlético Madrid Aktiv 114 / 140 40% 1 03.05.2027 -
Santiago Pierotti Lecce Aktiv 128 / 112 40% 1 02.05.2027 -
Rayan Bournemouth Aktiv 142 / 135 40% 1 01.05.2027 -
Leandro Martins Benfica Aktiv 100 / 115 40% 1 01.05.2027 -
Oscar Schwartau Norwich City Aktiv 137 / 131 40% 1 28.04.2027 -
Christ Inao Oulaï Fiorentina Aktiv 147 / 155 40% 1 23.04.2027 -
Matías Gómez Granada Aktiv 102 / 118 40% 1 23.04.2027 -
Joel McGregor Swindon Town Aktiv 91 / 82 40% 1 22.04.2027 -
Edvin Austbø West Ham United Aktiv 128 / 151 40% 1 20.04.2027 -
Thulani Dala Platinum Stars Aktiv 86 / 84 40% 1 19.04.2027 -
Rhian Brewster Oxford United Aktiv 108 / 139 40% 1 18.04.2027 -
Abu Kamara Portsmouth Aktiv 107 / 106 40% 1 16.04.2027 -
Dom Ballard Leyton Orient Aktiv 119 / 106 40% 2 13.04.2027 -
Etiosa Ighodaro Kaizer Chiefs Aktiv 107 / 118 40% 1 13.04.2027 -
Cian Ashford Cardiff City Aktiv 122 / 139 40% 3 11.04.2027 -
Mohamed-Ali Cho Hull City Aktiv 143 / 154 40% 1 10.04.2027 -
Tyrese Campbell Sheffield United Aktiv 123 / 138 40% 1 09.04.2027 -
Kasey McAteer Ipswich Town Aktiv 139 / 117 40% 1 07.04.2027 -
Tom Cannon Sheffield United Aktiv 119 / 144 40% 1 06.04.2027 -
Florentino Luís Ipswich Town Aktiv 151 / 125 40% 1 06.04.2027 -
Max Bird Birmingham Aktiv 118 / 133 40% 2 05.04.2027 -
Finn Azaz Southampton Aktiv 123 / 144 40% 2 05.04.2027 -
Carlos Vicente Birmingham Aktiv 151 / 158 40% 2 04.04.2027 -
Kwadwo Baah Watford Aktiv 132 / 138 40% 1 03.04.2027 -
Giorgi Chakvetadze Watford Aktiv 125 / 117 40% 1 29.03.2027 -
Paris Maghoma Norwich City Aktiv 118 / 120 40% 2 28.03.2027 -
Mduduzi Shabalala Kaizer Chiefs Aktiv 128 / 127 40% 3 28.03.2027 -
Derensili Sanches Fernandes Huddersfield Town Aktiv 135 / 106 40% 4 26.03.2027 -
Tyreece Campbell Charlton Athletic Aktiv 101 / 124 40% 2 26.03.2027 -
Ollie Tanner Cardiff City Aktiv 107 / 102 40% 2 26.03.2027 -
Mohammed Yahaya Great Olympics Aktiv 100 / 97 40% 2 23.03.2027 -
Stanley Mills Oxford United Aktiv 112 / 132 40% 1 23.03.2027 -
Josh Tymon Swansea City Aktiv 119 / 110 40% 1 21.03.2027 -
Scott Twine Bristol City Aktiv 117 / 133 40% 2 19.03.2027 -
Isaac Price West Bromwich Albion Aktiv 129 / 143 40% 1 19.03.2027 -
Isaiah Jones Luton Town Aktiv 123 / 106 40% 4 17.03.2027 -
Nicolò Cambiaghi Bologna Aktiv 133 / 129 40% 2 15.03.2027 -
Kwame Opoku Asante Kotoko Aktiv 98 / 100 40% 1 13.03.2027 -
Dávid Strelec Middlesbrough Aktiv 133 / 143 40% 2 11.03.2027 -
Evidence Makgopa Orlando Pirates Aktiv 118 / 104 40% 2 11.03.2027 -
Othmane Maamma Watford Aktiv 124 / 146 40% 1 11.03.2027 -
Williams Manyama SuperSport United Aktiv 100 / 98 40% 4 10.03.2027 -
Isaac Essien WAFA Aktiv 94 / 112 40% 3 09.03.2027 -
Daniel Kyerewaa Reading Aktiv 113 / 126 40% 3 04.03.2027 -
Aune Heggebø West Bromwich Albion Aktiv 137 / 128 40% 1 04.03.2027 -
Ali Ahmed Norwich City Aktiv 118 / 139 40% 1 27.02.2027 -
Alex Robertson Cardiff City Aktiv 115 / 110 40% 1 27.02.2027 -
Christian Krasnodar Aktiv 149 / 133 40% 5 26.02.2027 -
Bradley Fink Wycombe Wanderers Aktiv 108 / 126 40% 1 26.02.2027 -
Jack McGlynn Stoke City Aktiv 146 / 148 40% 1 24.02.2027 -
Tyler Goodrham Oxford United Aktiv 126 / 143 40% 3 22.02.2027 -
Oswin Appollis Orlando Pirates Aktiv 123 / 111 40% 2 21.02.2027 -
Ethan Galbraith Swansea City Aktiv 120 / 141 40% 1 19.02.2027 -
Harry Clarke Preston Aktiv 115 / 118 40% 1 16.02.2027 -
Tom Fellows Southampton Aktiv 148 / 112 40% 1 15.02.2027 -
Kwame Poku Queens Park Rangers Aktiv 110 / 127 40% 2 13.02.2027 -
Lewis Ferguson Bologna Aktiv 158 / 134 40% 1 10.02.2027 -
Kellen Fisher Norwich City Aktiv 106 / 117 40% 1 07.02.2027 -
Zeidane Inoussa Swansea City Aktiv 128 / 126 40% 1 06.02.2027 -
Zane Albarus Cambridge United Aktiv 89 / 100 40% 1 02.02.2027 -
Dylan Lawlor Cardiff City Aktiv 105 / 132 40% 1 02.02.2027 -
Xavier Amaechi Plymouth Argyle Aktiv 96 / 116 40% 1 02.02.2027 -
Slobodan Tedić Akron Aktiv 106 / 125 40% 1 30.01.2027 -
Ali Youssef Apollon Aktiv 116 / 137 40% 1 30.01.2027 -
Suleiman Camara Slovan Bratislava Aktiv 122 / 133 40% 2 27.01.2027 -
Mathias Jørgensen Blackburn Rovers Aktiv 105 / 110 40% 1 27.01.2027 -
Siyanda Ndlovu Bloemfontein Celtic Aktiv 108 / 102 40% 1 25.01.2027 -
Jack Diamond Stockport County Aktiv 102 / 111 40% 2 24.01.2027 -
José Martínes CSKA 1948 Aktiv 102 / 125 40% 1 23.01.2027 -
Enzo Avaro Odd Aktiv 120 / 124 40% 4 22.01.2027 -
Ruslan Bezrukov Rubin Aktiv 111 / 108 40% 1 19.01.2027 -
Pelle Mattsson Norwich City Aktiv 111 / 124 40% 1 17.01.2027 -
Petar Stanić Ludogorets Aktiv 141 / 149 40% 1 17.01.2027 -
Brodie Spencer Oxford United Aktiv 113 / 109 40% 1 16.01.2027 -
Sonny Carey Charlton Athletic Aktiv 109 / 128 40% 1 16.01.2027 -
Million Manhoef Stoke City Aktiv 119 / 144 40% 1 14.01.2027 -
Ramiro Ruiz Rodríguez Atlético Tucumán Aktiv 128 / 125 40% 2 13.01.2027 -
Eom Ji-Sung Swansea City Aktiv 124 / 114 40% 1 11.01.2027 -
Tomás O'Connor Gimnasia y Esgrima Aktiv 114 / 137 40% 3 10.01.2027 -
Brayan León Mamelodi Sundowns Aktiv 104 / 105 40% 1 10.01.2027 -
Edwin Cerrillo Club America Aktiv 112 / 101 40% 1 10.01.2027 -
Rubens Dinamo Moscow Aktiv 119 / 137 40% 1 09.01.2027 -
Bongani Mothiba SuperSport United Aktiv 92 / 69 40% 1 08.01.2027 -
Niall Ennis Blackpool Aktiv 98 / 102 40% 1 08.01.2027 -
Luca Martínez Dupuy Godoy Cruz Aktiv 110 / 129 40% 3 05.01.2027 -
Jonás Luna Santa Clara Aktiv 112 / 131 40% 2 01.01.2027 -
Jacques Ekomié Wrexham Aktiv 132 / 139 40% 1 29.12.2026 -
Mandla Erasmus SuperSport United Aktiv 118 / 116 40% 1 29.12.2026 -
Andrés Dieppa Metalurh Zaporizhzhia Aktiv 84 / 72 40% 1 28.12.2026 -
Juergen Elitím Bohemians 1905 Aktiv 111 / 108 40% 1 24.12.2026 -
Franco Watson Lanús Aktiv 127 / 115 40% 1 24.12.2026 -
Lukáš Červ Viktoria Plzen Aktiv 123 / 128 40% 1 23.12.2026 -
Sam Bell Bristol City Aktiv 115 / 109 40% 1 23.12.2026 -
Juan Manuel Boselli Krasnodar Aktiv 126 / 110 40% 1 14.12.2026 -
Everton Bala Levski Aktiv 127 / 107 40% 1 30.11.2026 Mehr Infos nötig
Augusto Berrondo Tristán Suárez Aktiv 100 / 116 40% 1 29.11.2026 -
Pablo Rodríguez Lech Aktiv 112 / 124 40% 1 29.11.2026 -
Eren Aydın Zira Aktiv 96 / 122 40% 1 28.11.2026 -
Lucas Varaldo Central Córdoba SdE Aktiv 117 / 108 40% 1 26.11.2026 -
Misael Sosa Godoy Cruz Aktiv 111 / 108 40% 5 24.11.2026 -
Vinko Rozić Istra 1961 Aktiv 122 / 108 40% 1 24.11.2026 -
Juan Rocca Gimnasia y Tiro Aktiv 114 / 117 40% 2 22.11.2026 -
Santiago Sala Güemes Aktiv 112 / 100 40% 1 19.11.2026 -
Themba Ngcobo SuperSport United Aktiv 112 / 112 40% 2 18.11.2026 Mehr Infos nötig
Nicolás Cordero Aldosivi Aktiv 119 / 109 40% 3 13.11.2026 -
Agustín Módica Gimnasia y Esgrima Aktiv 120 / 123 40% 1 13.11.2026 -
Diego García Malmo FF Aktiv 132 / 121 40% 2 12.11.2026 -
José Barreto Quilmes Aktiv 108 / 103 40% 1 11.11.2026 -
Ruben van Bommel Ferencvaros Aktiv 128 / 113 40% 1 10.11.2026 -
Bénie Traoré New York City Aktiv 110 / 105 40% 1 07.11.2026 -
Ezequiel Almirón Estudiantes Aktiv 113 / 120 40% 1 06.11.2026 -
Fernando Martínez Central Córdoba SdE Aktiv 118 / 115 40% 1 04.11.2026 -
Matías Sosa Arsenal Aktiv 103 / 122 40% 2 28.10.2026 -
Tomás González Piast Aktiv 132 / 112 40% 1 27.10.2026 -
Dejan Joveljić Seattle Sounders Aktiv 116 / 124 40% 1 26.10.2026 -
Sebastián Cocimano Nueva Chicago Aktiv 122 / 106 40% 1 25.10.2026 -
Thiago Calone All Boys Aktiv 118 / 120 40% 1 23.10.2026 -
Javier Martínez Almirante Brown Aktiv 103 / 103 40% 1 23.10.2026 -
Matías Fernández Independiente Rivadavia Aktiv 115 / 133 40% 1 21.10.2026 -
Felipe Peña Biafore Lanús Aktiv 122 / 133 40% 1 20.10.2026 -
Leandro Lozano Boca Juniors Aktiv 129 / 122 40% 1 20.10.2026 -
Samuel Lucero Defensa y Justicia Aktiv 118 / 110 40% 2 17.10.2026 -
Rodrigo Herrera Newell's Old Boys Aktiv 119 / 115 40% 1 17.10.2026 -
Alexander Díaz Deportivo Riestra Aktiv 109 / 114 40% 1 16.10.2026 -
Luca Franco Arsenal Aktiv 115 / 100 40% 1 15.10.2026 -
Alan Lescano Argentinos Juniors Aktiv 127 / 119 40% 1 13.10.2026 -
Lautaro Gordillo Colegiales Aktiv 117 / 116 40% 1 11.10.2026 -
Louis Munteanu DC United Aktiv 120 / 122 40% 1 10.10.2026 -
Carlos Gugenheim Almirante Brown Aktiv 102 / 125 40% 1 07.10.2026 -
Rafael Navarro St. Louis CITY SC Aktiv 112 / 144 40% 1 06.10.2026 -
Maximiliano Rodríguez Huachipato Aktiv 117 / 111 40% 1 05.10.2026 -
Nathan-Dylan Saliba Villarreal Aktiv 111 / 126 40% 1 08.09.2026 -
Iker Benito Queretaro Aktiv 135 / 112 40% 1 07.09.2026 -
Eduardo Dos Santos Veracruz Aktiv 125 / 109 40% 1 07.09.2026 -
Jorge Morel Cerro Porteno Aktiv 119 / 112 40% 1 08.08.2026 -
Agustín Palavecino Cruz Azul Aktiv 123 / 115 40% 1 08.08.2026 -
Andrés Colorado Once Caldas Aktiv 117 / 107 40% 1 07.08.2026 -
Nicolás Fonseca Leon Aktiv 132 / 137 40% 1 06.08.2026 -
Santiago Toloza O'Higgins Aktiv 122 / 120 40% 1 06.08.2026 -
Mauricio Isais Pachuca Aktiv 100 / 106 40% 1 05.08.2026 -
Francisco González Metilli Belgrano Aktiv 134 / 117 40% 1 05.08.2026 -
Sebastián Córdova Pumas UNAM Aktiv 124 / 144 40% 1 04.08.2026 -
Justo Giani Universidad Catolica Aktiv 129 / 133 40% 1 04.08.2026 -
Jaime Mora Envigado Aktiv 91 / 94 40% 1 03.08.2026 -
Joel Godoy Sarmiento Aktiv 102 / 114 40% 1 03.08.2026 -
Ian Garguez Palestino Aktiv 107 / 113 40% 1 03.08.2026 -